Time;durP1;ratioP1;P1;durP2;ratioP2;P2;SDS_P1;SDS_P2;PMS_P1;PMS_P2;Temp;Humidity;BMP_temperature;BMP_pressure;BME280_temperature;BME280_humidity;BME280_pressure;Samples;Min_cycle;Max_cycle;Signal;HPM_P1;HPM_P2
2024/01/23 00:09:03;;;;;;;13.30;9.20;;;;;;;2.44;97.77;99199.47;433351;1260;139898;-60
2024/01/23 00:19:09;;;;;;;11.50;8.80;;;;;;;2.43;97.89;99206.91;436061;1258;140208;-60
2024/01/23 00:29:15;;;;;;;9.90;7.80;;;;;;;2.36;97.63;99204.06;432857;1258;140137;-61
2024/01/23 00:39:22;;;;;;;12.90;9.50;;;;;;;2.28;97.72;99210.40;433117;1260;140080;-61
2024/01/23 00:49:28;;;;;;;16.60;10.80;;;;;;;2.25;98.59;99213.96;432949;1259;139530;-61
2024/01/23 00:59:34;;;;;;;11.50;9.80;;;;;;;2.24;98.73;99231.26;433521;1262;140981;-61
2024/01/23 01:09:40;;;;;;;12.80;8.70;;;;;;;2.22;99.11;99241.70;433790;1261;139559;-59
2024/01/23 01:19:46;;;;;;;11.20;9.30;;;;;;;2.19;99.67;99246.10;433575;1257;140311;-60
2024/01/23 01:29:51;;;;;;;13.60;9.50;;;;;;;2.14;99.66;99248.02;434384;1260;139905;-61
2024/01/23 01:39:57;;;;;;;9.70;8.00;;;;;;;2.13;100.00;99258.73;433824;1260;139341;-62
2024/01/23 01:50:04;;;;;;;8.90;7.10;;;;;;;2.16;100.00;99260.73;434905;1260;141674;-62
2024/01/23 02:00:12;;;;;;;11.90;7.50;;;;;;;2.08;100.00;99266.52;433555;1260;140016;-61
2024/01/23 02:10:19;;;;;;;10.10;9.00;;;;;;;1.98;100.00;99267.53;433177;1261;140515;-60
2024/01/23 02:20:24;;;;;;;13.60;10.10;;;;;;;1.84;100.00;99266.98;435711;1258;139834;-60
2024/01/23 02:30:31;;;;;;;9.90;8.40;;;;;;;1.71;100.00;99268.61;433600;1258;266304;-61
2024/01/23 02:40:36;;;;;;;;;;;;;;;1.68;100.00;99285.09;436039;1260;139382;-62
2024/01/23 02:50:41;;;;;;;14.10;9.80;;;;;;;1.66;100.00;99288.11;434265;1260;125483;-60
2024/01/23 03:00:47;;;;;;;16.10;9.80;;;;;;;1.59;100.00;99295.55;433410;1260;139652;-59
2024/01/23 03:10:53;;;;;;;15.40;9.60;;;;;;;1.49;100.00;99293.79;433502;1257;140002;-60
2024/01/23 03:20:59;;;;;;;17.30;9.90;;;;;;;1.42;100.00;99294.38;433141;1258;140456;-67
2024/01/23 03:31:05;;;;;;;10.60;9.40;;;;;;;1.32;100.00;99305.34;433538;1260;140706;-60
2024/01/23 03:41:11;;;;;;;13.40;11.20;;;;;;;1.31;100.00;99313.66;433074;1257;140133;-60
2024/01/23 03:51:16;;;;;;;13.60;10.20;;;;;;;1.39;100.00;99311.02;434639;1256;140444;-59
2024/01/23 04:01:22;;;;;;;12.90;10.50;;;;;;;1.29;100.00;99322.35;433022;1256;139725;-60
2024/01/23 04:11:29;;;;;;;14.10;12.60;;;;;;;1.27;100.00;99328.28;433155;1257;142220;-60
2024/01/23 04:21:34;;;;;;;11.10;10.00;;;;;;;1.21;100.00;99328.43;433582;1260;140369;-61
2024/01/23 04:31:40;;;;;;;13.30;11.30;;;;;;;1.22;100.00;99333.77;433655;1257;142216;-61
2024/01/23 04:41:46;;;;;;;12.00;10.70;;;;;;;1.29;100.00;99325.61;433334;1257;141342;-61
2024/01/23 04:51:52;;;;;;;12.30;11.00;;;;;;;1.38;100.00;99332.08;433877;1257;139492;-60
2024/01/23 05:01:57;;;;;;;12.00;10.10;;;;;;;1.28;100.00;99338.92;433928;1260;139807;-60
2024/01/23 05:12:04;;;;;;;13.00;11.00;;;;;;;0.99;100.00;99336.15;433376;1255;139744;-60
2024/01/23 05:22:10;;;;;;;10.70;9.50;;;;;;;0.80;100.00;99343.39;433692;1256;140178;-61
2024/01/23 05:32:15;;;;;;;11.30;8.10;;;;;;;0.97;100.00;99343.27;433618;1257;139646;-60
2024/01/23 05:42:21;;;;;;;12.70;9.50;;;;;;;1.24;100.00;99353.17;433259;1257;140023;-61
2024/01/23 05:52:27;;;;;;;11.30;8.70;;;;;;;1.39;100.00;99359.98;433472;1256;139707;-61
2024/01/23 06:02:33;;;;;;;10.10;8.20;;;;;;;1.47;100.00;99372.35;433168;1260;140091;-62
2024/01/23 06:12:39;;;;;;;15.80;11.90;;;;;;;1.53;100.00;99379.58;432962;1256;140021;-60
2024/01/23 06:22:45;;;;;;;13.10;9.50;;;;;;;1.52;100.00;99396.38;432765;1258;140199;-60
2024/01/23 06:32:50;;;;;;;11.80;8.70;;;;;;;1.52;100.00;99402.57;433216;1259;139766;-60
2024/01/23 06:42:56;;;;;;;12.20;11.00;;;;;;;1.50;100.00;99409.88;433216;1260;140224;-60
2024/01/23 06:53:03;;;;;;;10.00;8.40;;;;;;;1.43;100.00;99424.40;432712;1259;140700;-68
2024/01/23 07:03:08;;;;;;;;;;;;;;;1.42;100.00;99438.74;433082;1257;139580;-64
2024/01/23 07:13:15;;;;;;;12.60;9.50;;;;;;;1.56;100.00;99455.06;434143;1256;126250;-65
2024/01/23 07:23:21;;;;;;;15.50;9.60;;;;;;;1.72;100.00;99470.31;433425;1256;140233;-65
2024/01/23 07:33:28;;;;;;;12.70;11.10;;;;;;;1.88;100.00;99483.84;433315;1257;139237;-71
2024/01/23 07:43:34;;;;;;;12.70;9.10;;;;;;;2.27;100.00;99505.44;435302;1258;141416;-65
2024/01/23 07:53:40;;;;;;;13.20;10.10;;;;;;;2.51;100.00;99518.88;433257;1256;139964;-63
2024/01/23 08:03:45;;;;;;;12.40;8.80;;;;;;;2.77;100.00;99528.77;433061;1259;140029;-64
2024/01/23 08:13:51;;;;;;;11.20;8.60;;;;;;;3.00;100.00;99531.10;433167;1257;139489;-63
2024/01/23 08:23:57;;;;;;;12.50;8.40;;;;;;;3.75;100.00;99537.15;433302;1257;140205;-69
2024/01/23 08:34:03;;;;;;;11.50;8.10;;;;;;;4.25;100.00;99551.25;433787;1256;139854;-64
2024/01/23 08:44:10;;;;;;;10.50;6.90;;;;;;;4.13;100.00;99566.06;435708;1255;140112;-62
2024/01/23 08:54:19;;;;;;;8.90;7.20;;;;;;;3.98;100.00;99581.67;433064;1256;139640;-68
2024/01/23 09:04:25;;;;;;;10.40;7.30;;;;;;;4.45;100.00;99582.83;435923;1258;140128;-64
2024/01/23 09:14:31;;;;;;;10.80;6.20;;;;;;;8.20;100.00;99582.52;439111;1255;139642;-68
2024/01/23 09:24:36;;;;;;;9.30;5.70;;;;;;;10.66;93.99;99587.73;432780;1256;139965;-64
2024/01/23 09:34:43;;;;;;;9.20;6.60;;;;;;;9.45;90.22;99612.22;434339;1256;139195;-70
2024/01/23 09:44:51;;;;;;;8.40;5.20;;;;;;;7.66;88.64;99624.48;443413;1255;139155;-68
2024/01/23 09:54:57;;;;;;;13.10;6.40;;;;;;;5.92;90.33;99635.50;434548;1256;140089;-67
2024/01/23 10:05:03;;;;;;;11.30;6.60;;;;;;;4.84;92.28;99646.36;433034;1257;140649;-60
2024/01/23 10:15:12;;;;;;;10.70;7.60;;;;;;;4.25;94.75;99652.13;433159;1255;142831;-63
2024/01/23 10:25:20;;;;;;;12.00;7.00;;;;;;;3.88;96.37;99660.88;435665;1256;140433;-66
2024/01/23 10:35:29;;;;;;;10.20;5.80;;;;;;;3.77;98.00;99663.30;436360;1256;139974;-66
2024/01/23 10:45:36;;;;;;;9.00;6.10;;;;;;;3.73;99.73;99671.08;434890;1260;139399;-69
2024/01/23 10:55:47;;;;;;;9.80;6.10;;;;;;;4.09;100.00;99684.54;435492;1256;139087;-62
2024/01/23 11:05:57;;;;;;;12.40;6.60;;;;;;;4.43;100.00;99681.61;432774;1256;139461;-68
2024/01/23 11:16:08;;;;;;;9.20;4.80;;;;;;;4.73;100.00;99683.23;436210;1257;139338;-66
2024/01/23 11:26:19;;;;;;;8.60;4.60;;;;;;;4.82;99.83;99683.59;433763;1256;139341;-59
2024/01/23 11:36:27;;;;;;;6.70;4.40;;;;;;;5.06;99.91;99690.11;436946;1255;139304;-65
2024/01/23 11:46:37;;;;;;;7.00;4.30;;;;;;;5.25;99.16;99683.29;437485;1256;140957;-67
2024/01/23 11:56:43;;;;;;;4.70;3.00;;;;;;;5.09;97.80;99681.50;438638;1255;140002;-62
2024/01/23 12:06:49;;;;;;;5.80;3.00;;;;;;;4.86;97.98;99697.83;436418;1256;142194;-70
2024/01/23 12:17:05;;;;;;;5.40;2.30;;;;;;;4.74;98.08;99694.48;433318;1257;139365;-64
2024/01/23 12:27:16;;;;;;;4.90;3.80;;;;;;;4.62;98.05;99681.24;433813;1259;140420;-62
2024/01/23 12:37:32;;;;;;;5.60;3.60;;;;;;;4.57;98.48;99687.84;433927;1260;139625;-64
2024/01/23 12:47:39;;;;;;;8.60;4.30;;;;;;;4.55;98.72;99704.89;433613;1259;139744;-64
2024/01/23 12:57:45;;;;;;;3.70;2.70;;;;;;;4.59;99.02;99701.45;433838;1255;138799;-62
2024/01/23 13:07:52;;;;;;;5.60;3.40;;;;;;;4.65;99.09;99712.67;435548;1256;139190;-73
2024/01/23 13:17:58;;;;;;;6.90;3.00;;;;;;;4.70;98.94;99728.64;436182;1256;140389;-67
2024/01/23 13:28:05;;;;;;;5.50;2.70;;;;;;;4.60;98.46;99740.23;436353;1258;139508;-63
2024/01/23 13:38:12;;;;;;;6.40;3.70;;;;;;;4.49;98.41;99739.96;434623;1258;139159;-66
2024/01/23 13:48:17;;;;;;;6.60;4.30;;;;;;;4.30;98.29;99751.41;433433;1261;140556;-64
2024/01/23 13:58:24;;;;;;;7.30;3.70;;;;;;;4.13;98.58;99758.21;435600;1256;140484;-67
2024/01/23 14:08:29;;;;;;;6.60;4.00;;;;;;;3.99;98.88;99765.28;433279;1258;139294;-60
2024/01/23 14:18:35;;;;;;;7.80;3.80;;;;;;;3.86;99.10;99769.34;433301;1260;140154;-65
2024/01/23 14:28:42;;;;;;;8.10;3.60;;;;;;;3.75;99.46;99772.10;435634;1257;207127;-65
2024/01/23 14:38:48;;;;;;;8.40;4.10;;;;;;;3.73;100.00;99784.32;434705;1259;139661;-69
2024/01/23 14:48:54;;;;;;;12.90;4.10;;;;;;;3.61;100.00;99789.70;432888;1260;139592;-61
2024/01/23 14:59:00;;;;;;;8.20;3.30;;;;;;;3.45;100.00;99806.84;432964;1256;139722;-63
2024/01/23 15:09:10;;;;;;;10.80;5.20;;;;;;;3.26;100.00;99830.58;436122;1258;140057;-59
2024/01/23 15:19:19;;;;;;;8.20;5.10;;;;;;;3.04;100.00;99850.42;436159;1259;139816;-59
2024/01/23 15:29:27;;;;;;;9.60;4.90;;;;;;;2.86;100.00;99877.57;435808;1256;140895;-59
2024/01/23 15:39:33;;;;;;;5.20;3.90;;;;;;;2.76;100.00;99902.20;433576;1256;139310;-61
2024/01/23 15:49:40;;;;;;;7.60;5.00;;;;;;;2.72;100.00;99924.96;435658;1257;139190;-63
2024/01/23 15:59:47;;;;;;;14.60;6.50;;;;;;;2.67;100.00;99943.42;433481;1259;140615;-60
2024/01/23 16:09:53;;;;;;;18.50;8.00;;;;;;;2.58;100.00;99946.06;433228;1259;139590;-61
2024/01/23 16:19:59;;;;;;;8.90;5.30;;;;;;;2.48;100.00;99965.16;433644;1258;140178;-62
2024/01/23 16:30:07;;;;;;;9.40;5.90;;;;;;;2.44;100.00;99985.30;433346;1256;139577;-60
2024/01/23 16:40:15;;;;;;;34.50;17.50;;;;;;;2.43;100.00;99991.54;433778;1256;140197;-62
2024/01/23 16:50:21;;;;;;;12.70;6.00;;;;;;;2.46;100.00;100000.60;436981;1257;141218;-63
2024/01/23 17:00:27;;;;;;;8.70;4.10;;;;;;;2.57;100.00;100001.39;432958;1256;140084;-71
2024/01/23 17:10:32;;;;;;;9.40;4.30;;;;;;;2.75;100.00;100005.29;433440;1255;141417;-61
2024/01/23 17:20:38;;;;;;;5.80;4.10;;;;;;;2.88;100.00;100020.86;434254;1257;141124;-62
2024/01/23 17:30:45;;;;;;;8.20;4.20;;;;;;;2.95;100.00;100032.80;434068;1259;140030;-61
2024/01/23 17:40:53;;;;;;;11.60;4.30;;;;;;;2.98;100.00;100046.23;438018;1259;139776;-61
2024/01/23 17:50:59;;;;;;;8.60;4.50;;;;;;;3.02;100.00;100062.18;433210;1260;139507;-61
2024/01/23 18:01:06;;;;;;;9.40;4.40;;;;;;;3.09;100.00;100068.08;432994;1260;139347;-62
2024/01/23 18:11:12;;;;;;;8.00;4.30;;;;;;;3.08;100.00;100072.95;434558;1256;139747;-61
2024/01/23 18:21:18;;;;;;;8.30;4.50;;;;;;;3.04;100.00;100082.23;433128;1258;139671;-60
2024/01/23 18:31:26;;;;;;;12.30;4.90;;;;;;;2.99;100.00;100097.55;433116;1258;140876;-61
2024/01/23 18:41:32;;;;;;;14.80;5.00;;;;;;;2.90;100.00;100089.64;433657;1259;139712;-61
2024/01/23 18:51:38;;;;;;;8.40;4.20;;;;;;;2.80;100.00;100103.70;433101;1256;140099;-62
2024/01/23 19:01:44;;;;;;;12.40;4.70;;;;;;;2.75;100.00;100110.91;432951;1260;139696;-61
2024/01/23 19:11:50;;;;;;;9.10;3.70;;;;;;;2.74;100.00;100103.86;433011;1260;140115;-61
2024/01/23 19:21:56;;;;;;;8.80;4.10;;;;;;;2.77;100.00;100107.41;434410;1260;140979;-61
2024/01/23 19:32:02;;;;;;;8.80;4.10;;;;;;;2.85;100.00;100110.35;433863;1257;139748;-61
2024/01/23 19:42:08;;;;;;;8.40;4.20;;;;;;;2.92;100.00;100111.04;433515;1260;141399;-61
2024/01/23 19:52:14;;;;;;;9.80;3.60;;;;;;;2.89;100.00;100110.23;433542;1261;140786;-61
2024/01/23 20:02:20;;;;;;;8.60;4.00;;;;;;;2.74;100.00;100108.16;433687;1261;139715;-61
2024/01/23 20:12:26;;;;;;;11.00;4.20;;;;;;;2.54;100.00;100114.33;433031;1260;141288;-61
2024/01/23 20:22:32;;;;;;;11.80;5.20;;;;;;;2.38;100.00;100128.50;433231;1260;141052;-62
2024/01/23 20:32:37;;;;;;;9.20;4.20;;;;;;;2.37;100.00;100143.55;433400;1260;139933;-61
2024/01/23 20:42:43;;;;;;;10.50;4.10;;;;;;;2.36;100.00;100148.07;432851;1257;141115;-62
2024/01/23 20:52:49;;;;;;;9.00;5.40;;;;;;;2.14;100.00;100157.31;433251;1258;140764;-62
2024/01/23 21:02:55;;;;;;;11.40;5.10;;;;;;;1.83;100.00;100160.51;433174;1260;140372;-62
2024/01/23 21:13:01;;;;;;;12.60;6.20;;;;;;;1.53;100.00;100157.27;432675;1257;141317;-62
2024/01/23 21:23:07;;;;;;;14.10;6.00;;;;;;;1.25;100.00;100157.89;432871;1260;141439;-61
2024/01/23 21:33:13;;;;;;;16.40;9.00;;;;;;;1.03;100.00;100152.91;433099;1260;140011;-62
2024/01/23 21:43:19;;;;;;;13.20;6.00;;;;;;;0.84;100.00;100145.77;433309;1260;139453;-62
2024/01/23 21:53:25;;;;;;;16.60;9.60;;;;;;;0.74;100.00;100143.34;433465;1260;140002;-61
2024/01/23 22:03:34;;;;;;;12.10;8.00;;;;;;;0.69;100.00;100130.16;433784;1260;140207;-61
2024/01/23 22:13:40;;;;;;;12.70;6.60;;;;;;;0.55;100.00;100121.20;435674;1258;140034;-61
2024/01/23 22:23:45;;;;;;;17.50;7.70;;;;;;;0.47;100.00;100099.44;433090;1260;140857;-61
2024/01/23 22:33:51;;;;;;;12.00;6.10;;;;;;;0.42;100.00;100087.11;433923;1257;140018;-62
2024/01/23 22:43:57;;;;;;;13.90;7.40;;;;;;;0.36;100.00;100087.36;433943;1259;139514;-62
2024/01/23 22:54:03;;;;;;;17.40;9.50;;;;;;;0.37;100.00;100087.35;433310;1260;140536;-63
2024/01/23 23:04:09;;;;;;;13.20;6.70;;;;;;;0.37;100.00;100087.86;433325;1258;140032;-61
2024/01/23 23:14:15;;;;;;;11.70;6.80;;;;;;;0.39;100.00;100065.77;435923;1260;140837;-61
2024/01/23 23:24:21;;;;;;;12.60;5.70;;;;;;;0.44;100.00;100040.73;433402;1260;140864;-59
2024/01/23 23:34:27;;;;;;;16.10;8.90;;;;;;;0.47;100.00;100019.16;433643;1260;140580;-60
2024/01/23 23:44:33;;;;;;;14.20;7.40;;;;;;;0.49;100.00;100021.37;433488;1260;140962;-60
2024/01/23 23:54:39;;;;;;;12.70;5.70;;;;;;;0.47;100.00;100013.83;433134;1257;140197;-70
